Disclaimer

Please do not use the information listed here in-flight or in-navigation, as they are not provided to us by the airports but are provided by volunteers, so they might be outdated.

Search


Regions


Airport information page

Radio informations:
RDO - 122.0 MHz
QUEBEC RDO - 126.7 MHz
MF - 122.0 MHz
MONTREAL CNTR - 132.25 MHz

Airport informations:
Latitude: 52° 55' 19.00" N
Longitude: 066° 51' 52.00" W
Elevation: 1808 feet - 551 meters
Operating hours: N/A
Operating agency: Civil government, landing fees and diplomatic clearance may be required
Timezone: Second Sunday in March at 0200 to first Sunday in November at 0200 local time (Exception Arizona and that portion of Indiana in the Eastern Time Zone)
Fuel: Jet B, Wide cut turbine fuel, Without icing inhibitor.

100/130 MIL Spec, low lead, aviation gasoline (BLUE)

Runway information:
18/36 - 6000 x 150 feet< - >1829 x 46 meters

Recent METARs:
CYWK 181700Z 29014KT 15SM DRSN BKN024 M14/M19 A2992 RMK CU5 SLP183
CYWK 181700Z 29014KT 15SM DRSN BKN024 M14/M19 A2992 RMK CU5 SLP183
CYWK 181800Z 26008KT 15SM VCSH BKN028 M14/M20 A2993 RMK CU5 SLP187

Airport on the map: